Terminal Aerodrome Forecast
Issued by NWS

Current Version | Previous Version | Graphics & Text | Print | Product List | Glossary On
Versions: 1 2 3 4 5 6 7 8 9 10 11 12 13 14 15 16
260
FTUS41 KILN 031127
TAFLUK
TAF
KLUK 031127Z 0312/0412 20012G20KT P6SM BKN035 OVC080
     FM031400 24014G24KT P6SM SCT035
     FM032000 25016G26KT P6SM BKN035
     FM040400 26010KT P6SM BKN025
     FM041100 27008KT P6SM OVC022=

USA.gov is the U.S. government's official web portal to all federal, state and local government web resources and services.